Time;durP1;ratioP1;P1;durP2;ratioP2;P2;SDS_P1;SDS_P2;PMS_P1;PMS_P2;Temp;Humidity;BMP_temperature;BMP_pressure;BME280_temperature;BME280_humidity;BME280_pressure;Samples;Min_cycle;Max_cycle;Signal;HPM_P1;HPM_P2
2022/09/07 00:00:35;;;;;;;26.73;24.33;;;;;16.60;100758.00;;;;13084996;22;20170;-73
2022/09/07 00:05:45;;;;;;;26.30;23.90;;;;;16.50;100753.00;;;;13083709;22;20164;-73
2022/09/07 00:10:54;;;;;;;28.13;25.37;;;;;16.50;100743.00;;;;13037232;22;20180;-74
2022/09/07 00:15:56;;;;;;;26.53;24.10;;;;;16.40;100750.00;;;;13036446;22;20255;-74
2022/09/07 00:21:00;;;;;;;25.02;22.73;;;;;16.30;100753.00;;;;13082027;22;20652;-73
2022/09/07 00:26:08;;;;;;;25.63;23.20;;;;;16.30;100774.00;;;;13036249;22;20194;-73
2022/09/07 00:31:12;;;;;;;25.67;23.20;;;;;16.30;100788.00;;;;13082687;22;20485;-73
2022/09/07 00:36:18;;;;;;;22.97;20.87;;;;;16.50;100779.00;;;;13082764;22;20201;-73
2022/09/07 00:41:21;;;;;;;24.23;22.07;;;;;16.60;100759.00;;;;13110009;22;20164;-73
2022/09/07 00:46:32;;;;;;;20.10;17.87;;;;;16.70;100761.00;;;;13035326;22;20194;-73
2022/09/07 00:51:39;;;;;;;20.33;18.23;;;;;16.80;100766.00;;;;13085541;22;20190;-73
2022/09/07 00:56:43;;;;;;;18.90;17.20;;;;;16.80;100763.00;;;;13039095;22;20659;-73
2022/09/07 01:01:45;;;;;;;18.03;16.33;;;;;16.80;100756.00;;;;13038976;22;20174;-73
2022/09/07 01:06:47;;;;;;;15.63;13.98;;;;;16.80;100765.00;;;;13012507;22;20210;-74
2022/09/07 01:11:51;;;;;;;19.80;14.60;;;;;16.80;100762.00;;;;13060130;22;20160;-73
2022/09/07 01:17:16;;;;;;;17.70;15.93;;;;;16.90;100775.00;;;;13114028;22;20179;-74
2022/09/07 01:23:03;;;;;;;17.23;15.53;;;;;17.00;100769.00;;;;13063640;22;20514;-73
2022/09/07 01:28:10;;;;;;;17.50;15.03;;;;;17.10;100772.00;;;;13111381;22;20198;-73
2022/09/07 01:33:30;;;;;;;18.05;16.05;;;;;17.20;100757.00;;;;13063642;22;20168;-73
2022/09/07 01:38:37;;;;;;;18.45;16.45;;;;;17.10;100739.00;;;;13113160;22;20187;-74
2022/09/07 01:44:02;;;;;;;18.75;16.25;;;;;17.10;100746.00;;;;13038432;22;20225;-73
2022/09/07 01:49:10;;;;;;;18.55;15.88;;;;;17.10;100746.00;;;;13063148;22;20260;-73
2022/09/07 01:54:47;;;;;;;18.80;16.05;;;;;16.90;100764.00;;;;13038888;22;20175;-73
2022/09/07 02:00:08;;;;;;;16.67;14.85;;;;;16.80;100767.00;;;;13064994;22;20205;-73
2022/09/07 02:05:48;;;;;;;16.30;14.37;;;;;16.80;100763.00;;;;13086168;22;20163;-73
2022/09/07 02:10:59;;;;;;;17.03;15.10;;;;;16.70;100770.00;;;;13047405;22;20236;-73
2022/09/07 02:16:06;;;;;;;17.98;14.13;;;;;16.70;100760.00;;;;13063813;22;20252;-73
2022/09/07 02:21:09;;;;;;;16.70;15.00;;;;;16.80;100749.00;;;;13111603;22;20163;-73
2022/09/07 02:26:16;;;;;;;16.10;14.50;;;;;16.80;100737.00;;;;13063970;22;20248;-73
2022/09/07 02:31:17;;;;;;;18.35;15.27;;;;;16.80;100753.00;;;;13086157;22;20610;-73
2022/09/07 02:36:23;;;;;;;18.67;14.33;;;;;16.80;100747.00;;;;13063644;22;20199;-73
2022/09/07 02:41:36;;;;;;;19.00;15.27;;;;;16.80;100768.00;;;;13085359;22;20170;-73
2022/09/07 02:47:05;;;;;;;17.90;15.80;;;;;16.80;100772.00;;;;13063840;22;20617;-73
2022/09/07 02:52:34;;;;;;;19.20;16.13;;;;;16.90;100769.00;;;;13084603;22;20251;-73
2022/09/07 02:58:08;;;;;;;19.40;16.83;;;;;16.90;100759.00;;;;13062679;22;20195;-73
2022/09/07 03:03:19;;;;;;;19.65;16.92;;;;;16.90;100742.00;;;;13042655;22;20175;-73
2022/09/07 03:08:27;;;;;;;18.83;16.38;;;;;16.90;100743.00;;;;13085051;22;20168;-73
2022/09/07 03:13:29;;;;;;;22.38;17.65;;;;;16.80;100745.00;;;;13035788;22;20171;-73
2022/09/07 03:18:30;;;;;;;22.33;17.47;;;;;16.80;100739.00;;;;13063364;22;20196;-73
2022/09/07 03:23:32;;;;;;;21.73;17.02;;;;;16.80;100750.00;;;;13085253;22;20170;-73
2022/09/07 03:28:33;;;;;;;19.85;17.70;;;;;16.70;100755.00;;;;13037566;22;20261;-73
2022/09/07 03:33:34;;;;;;;20.35;18.25;;;;;16.70;100749.00;;;;13036887;22;20171;-73
2022/09/07 03:38:35;;;;;;;22.50;17.35;;;;;16.70;100744.00;;;;13036747;22;20191;-73
2022/09/07 03:43:36;;;;;;;20.33;17.13;;;;;16.80;100746.00;;;;13037656;22;20168;-73
2022/09/07 03:48:38;;;;;;;21.33;18.80;;;;;16.80;100742.00;;;;13062892;22;20178;-73
2022/09/07 03:53:42;;;;;;;24.97;18.43;;;;;16.90;100740.00;;;;13084217;22;20167;-73
2022/09/07 03:58:44;;;;;;;23.40;20.23;;;;;16.90;100732.00;;;;13011041;22;20199;-73
2022/09/07 04:03:46;;;;;;;30.77;20.67;;;;;16.90;100729.00;;;;13045446;22;20625;-73
2022/09/07 04:08:48;;;;;;;24.95;19.15;;;;;16.90;100733.00;;;;13062001;22;20666;-73
2022/09/07 04:13:49;;;;;;;25.23;20.27;;;;;17.00;100735.00;;;;13057134;22;20160;-73
2022/09/07 04:18:53;;;;;;;33.35;24.83;;;;;17.00;100732.00;;;;13109896;22;20187;-73
2022/09/07 04:23:55;;;;;;;30.03;26.83;;;;;17.10;100719.00;;;;13089143;22;20507;-73
2022/09/07 04:28:58;;;;;;;31.92;26.73;;;;;17.10;100718.00;;;;13111295;22;20826;-73
2022/09/07 04:34:00;;;;;;;35.47;29.38;;;;;17.20;100723.00;;;;13064161;22;20201;-73
2022/09/07 04:39:03;;;;;;;36.67;30.83;;;;;17.20;100721.00;;;;13038281;22;20204;-73
2022/09/07 04:44:05;;;;;;;44.28;35.70;;;;;17.10;100724.00;;;;13086266;22;20172;-73
2022/09/07 04:49:09;;;;;;;42.97;35.65;;;;;17.10;100724.00;;;;13063642;22;20178;-73
2022/09/07 04:54:10;;;;;;;41.85;34.00;;;;;16.90;100722.00;;;;13113449;22;20253;-73
2022/09/07 04:59:11;;;;;;;42.78;33.78;;;;;16.70;100738.00;;;;13038419;22;20232;-73
2022/09/07 05:04:12;;;;;;;41.45;32.63;;;;;16.60;100737.00;;;;13064104;22;20617;-73
2022/09/07 05:09:14;;;;;;;42.67;30.85;;;;;16.60;100731.00;;;;13111424;22;20167;-73
2022/09/07 05:14:15;;;;;;;35.97;30.27;;;;;16.70;100745.00;;;;13085484;22;20163;-73
2022/09/07 05:19:16;;;;;;;34.38;26.50;;;;;16.80;100735.00;;;;13063144;22;20191;-73
2022/09/07 05:24:18;;;;;;;29.83;24.63;;;;;16.90;100731.00;;;;13038517;22;20195;-73
2022/09/07 05:29:20;;;;;;;30.77;22.40;;;;;17.00;100738.00;;;;13085664;22;20500;-73
2022/09/07 05:34:41;;;;;;;32.83;25.00;;;;;17.00;100745.00;;;;13015941;22;20783;-73
2022/09/07 05:39:42;;;;;;;35.38;25.20;;;;;17.10;100747.00;;;;13080600;22;20214;-73
2022/09/07 05:44:44;;;;;;;32.70;24.27;;;;;17.10;100749.00;;;;13037856;22;20178;-72
2022/09/07 05:49:46;;;;;;;31.47;24.30;;;;;17.10;100743.00;;;;13085275;22;20620;-73
2022/09/07 05:54:47;;;;;;;33.05;24.70;;;;;17.20;100744.00;;;;13036272;22;20271;-73
2022/09/07 05:59:49;;;;;;;32.13;23.50;;;;;17.10;100750.00;;;;13084028;22;20696;-73
2022/09/07 06:04:50;;;;;;;31.50;23.40;;;;;17.10;100740.00;;;;13035363;22;20175;-73
2022/09/07 06:09:51;;;;;;;28.92;24.50;;;;;17.10;100735.00;;;;13016975;22;20203;-73
2022/09/07 06:15:12;;;;;;;31.83;24.45;;;;;17.30;100740.00;;;;13038298;22;20171;-73
2022/09/07 06:20:13;;;;;;;29.92;24.20;;;;;17.40;100750.00;;;;13015666;22;20214;-73
2022/09/07 06:25:15;;;;;;;32.40;23.92;;;;;17.70;100754.00;;;;13062686;22;20199;-73
2022/09/07 06:30:16;;;;;;;27.50;21.35;;;;;18.30;100760.00;;;;13059921;22;20566;-73
2022/09/07 06:35:18;;;;;;;23.83;19.55;;;;;18.80;100757.00;;;;13030996;22;20252;-73
2022/09/07 06:40:21;;;;;;;24.25;18.20;;;;;19.30;100759.00;;;;13108515;22;20160;-73
2022/09/07 06:45:23;;;;;;;19.05;16.95;;;;;19.50;100758.00;;;;13059563;22;20202;-74
2022/09/07 06:50:26;;;;;;;20.27;16.73;;;;;19.80;100761.00;;;;13109144;22;20163;-73
2022/09/07 06:55:27;;;;;;;21.02;18.13;;;;;20.20;100754.00;;;;13105687;22;20190;-73
2022/09/07 07:00:29;;;;;;;21.73;17.50;;;;;20.40;100757.00;;;;13051461;22;20159;-73
2022/09/07 07:05:30;;;;;;;19.77;17.73;;;;;20.70;100772.00;;;;13107342;22;20174;-73
2022/09/07 07:10:36;;;;;;;22.05;17.98;;;;;21.00;100778.00;;;;13078969;22;20170;-73
2022/09/07 07:15:38;;;;;;;20.58;16.00;;;;;21.10;100795.00;;;;13082504;22;20193;-73
2022/09/07 07:20:41;;;;;;;18.65;15.05;;;;;20.90;100798.00;;;;12998723;22;20826;-73
2022/09/07 07:25:42;;;;;;;19.38;13.82;;;;;20.90;100808.00;;;;13060162;22;20822;-73
2022/09/07 07:30:43;;;;;;;16.15;13.05;;;;;21.20;100806.00;;;;13081461;22;20163;-74
2022/09/07 07:35:44;;;;;;;19.50;12.85;;;;;21.20;100800.00;;;;13035093;22;20195;-74
2022/09/07 07:40:52;;;;;;;16.88;9.85;;;;;21.10;100794.00;;;;13019892;22;20175;-74
2022/09/07 07:46:15;;;;;;;14.00;8.85;;;;;21.50;100792.00;;;;13109074;22;20195;-73
2022/09/07 07:51:16;;;;;;;12.90;8.10;;;;;21.90;100787.00;;;;13039826;22;20210;-73
2022/09/07 07:56:18;;;;;;;10.45;5.85;;;;;22.40;100788.00;;;;13049746;22;20183;-73
2022/09/07 08:01:19;;;;;;;7.80;4.40;;;;;22.50;100798.00;;;;13105578;22;20544;-73
2022/09/07 08:06:20;;;;;;;6.72;3.85;;;;;22.80;100803.00;;;;13054509;22;20631;-73
2022/09/07 08:11:22;;;;;;;7.22;3.42;;;;;23.00;100807.00;;;;13053467;22;20166;-73
2022/09/07 08:16:23;;;;;;;5.93;3.40;;;;;23.20;100784.00;;;;13058184;22;20203;-73
2022/09/07 08:21:24;;;;;;;9.25;3.35;;;;;23.40;100798.00;;;;13059076;22;20817;-73
2022/09/07 08:26:26;;;;;;;5.55;2.88;;;;;23.90;100793.00;;;;13078427;22;20191;-74
2022/09/07 08:31:27;;;;;;;9.20;2.60;;;;;24.60;100781.00;;;;13080072;22;20163;-74
2022/09/07 08:36:30;;;;;;;6.28;2.25;;;;;25.30;100787.00;;;;13053537;22;20240;-74
2022/09/07 08:41:53;;;;;;;6.55;2.60;;;;;25.90;100789.00;;;;13033782;22;20511;-74
2022/09/07 08:46:54;;;;;;;6.97;2.40;;;;;26.40;100797.00;;;;13101674;22;20221;-73
2022/09/07 08:52:07;;;;;;;9.20;2.20;;;;;26.60;100801.00;;;;13079103;22;20767;-74
2022/09/07 08:57:09;;;;;;;4.75;2.40;;;;;26.60;100793.00;;;;13031684;22;20206;-74
2022/09/07 09:02:26;;;;;;;6.03;2.13;;;;;27.10;100794.00;;;;13107084;22;20167;-74
2022/09/07 09:07:41;;;;;;;7.57;2.63;;;;;26.80;100800.00;;;;13104857;22;20163;-74
2022/09/07 09:12:53;;;;;;;6.60;2.75;;;;;26.70;100792.00;;;;13107875;22;20665;-74
2022/09/07 09:18:12;;;;;;;5.07;2.85;;;;;25.70;100794.00;;;;13107021;22;20187;-73
2022/09/07 09:23:18;;;;;;;7.47;3.13;;;;;25.70;100796.00;;;;13092012;22;20270;-74
2022/09/07 09:28:20;;;;;;;8.27;3.10;;;;;25.90;100796.00;;;;13082883;22;20191;-73
2022/09/07 09:33:24;;;;;;;5.88;1.95;;;;;26.10;100804.00;;;;13050961;22;20167;-74
2022/09/07 09:38:33;;;;;;;4.55;1.75;;;;;26.60;100791.00;;;;13081428;22;20184;-74
2022/09/07 09:43:42;;;;;;;4.25;1.70;;;;;27.30;100792.00;;;;13083157;22;20167;-74
2022/09/07 09:48:59;;;;;;;6.18;1.73;;;;;27.40;100788.00;;;;13061108;22;20179;-74
2022/09/07 09:54:06;;;;;;;5.53;1.80;;;;;27.50;100794.00;;;;13106501;22;20234;-74
2022/09/07 09:59:22;;;;;;;3.20;1.52;;;;;26.00;100796.00;;;;13083161;22;20191;-74
2022/09/07 10:04:43;;;;;;;6.15;2.42;;;;;25.20;100780.00;;;;13038667;22;20267;-74
2022/09/07 10:09:52;;;;;;;3.60;1.75;;;;;25.50;100789.00;;;;13060897;22;20181;-74
2022/09/07 10:14:55;;;;;;;6.13;1.92;;;;;25.50;100788.00;;;;13035208;22;20175;-73
2022/09/07 10:20:20;;;;;;;4.30;2.00;;;;;26.20;100776.00;;;;13081490;22;20195;-74
2022/09/07 10:25:39;;;;;;;5.30;1.85;;;;;26.30;100774.00;;;;13060858;22;20238;-74
2022/09/07 10:31:11;;;;;;;3.47;1.48;;;;;26.10;100763.00;;;;13061303;22;20201;-73
2022/09/07 10:36:50;;;;;;;3.67;1.48;;;;;26.70;100762.00;;;;13057042;22;20215;-74
2022/09/07 10:41:58;;;;;;;4.40;1.42;;;;;27.80;100759.00;;;;13080606;22;20295;-74
2022/09/07 10:47:09;;;;;;;4.65;1.13;;;;;28.60;100750.00;;;;13082611;22;20167;-74
2022/09/07 10:52:25;;;;;;;5.68;1.65;;;;;29.10;100737.00;;;;13107412;22;20175;-74
2022/09/07 10:57:35;;;;;;;6.15;1.38;;;;;30.10;100739.00;;;;13109134;22;20213;-74
2022/09/07 11:02:49;;;;;;;8.45;1.70;;;;;30.60;100736.00;;;;13107746;22;20167;-74
2022/09/07 11:08:33;;;;;;;3.50;0.93;;;;;29.90;100725.00;;;;13108730;22;20159;-74
2022/09/07 11:13:39;;;;;;;6.22;1.25;;;;;30.00;100725.00;;;;13058213;22;20182;-75
2022/09/07 11:19:06;;;;;;;3.00;1.15;;;;;30.50;100726.00;;;;13058534;22;20234;-75
2022/09/07 11:24:36;;;;;;;4.35;1.55;;;;;29.80;100723.00;;;;13059627;22;20191;-75
2022/09/07 11:29:43;;;;;;;4.13;1.40;;;;;30.00;100722.00;;;;13106446;22;20827;-75
2022/09/07 11:34:50;;;;;;;5.78;1.13;;;;;30.20;100708.00;;;;13031965;22;20653;-74
2022/09/07 11:40:13;;;;;;;3.95;1.30;;;;;30.20;100704.00;;;;13058194;22;20203;-75
2022/09/07 11:45:22;;;;;;;4.78;1.25;;;;;29.70;100703.00;;;;13108453;22;20170;-75
2022/09/07 11:50:25;;;;;;;5.22;1.63;;;;;29.20;100711.00;;;;13053535;22;20593;-75
2022/09/07 11:55:32;;;;;;;7.97;1.58;;;;;29.00;100703.00;;;;13053961;22;20168;-75
2022/09/07 12:00:47;;;;;;;3.65;1.40;;;;;28.90;100702.00;;;;13033785;22;20186;-75
2022/09/07 12:06:01;;;;;;;6.47;1.42;;;;;29.20;100675.00;;;;13032643;22;20175;-75
2022/09/07 12:11:21;;;;;;;7.15;1.80;;;;;30.20;100679.00;;;;13104710;22;20223;-74
2022/09/07 12:16:27;;;;;;;3.88;1.25;;;;;29.60;100683.00;;;;13058369;22;20199;-74
2022/09/07 12:21:44;;;;;;;5.78;1.27;;;;;28.30;100681.00;;;;13104573;22;20164;-75
2022/09/07 12:26:48;;;;;;;4.75;1.73;;;;;28.40;100673.00;;;;13028784;22;20209;-74
2022/09/07 12:31:55;;;;;;;3.90;1.08;;;;;28.60;100685.00;;;;13059591;22;20178;-74
2022/09/07 12:37:09;;;;;;;4.38;1.08;;;;;29.00;100680.00;;;;13081494;22;20190;-74
2022/09/07 12:42:22;;;;;;;6.72;1.65;;;;;28.50;100684.00;;;;13107554;22;20163;-74
2022/09/07 12:47:39;;;;;;;4.38;1.25;;;;;28.00;100673.00;;;;13060297;22;20168;-74
2022/09/07 12:52:46;;;;;;;8.15;1.83;;;;;28.50;100670.00;;;;13034632;22;20200;-74
2022/09/07 12:58:23;;;;;;;7.65;1.77;;;;;28.30;100668.00;;;;13083783;22;20191;-74
2022/09/07 13:03:56;;;;;;;5.88;1.30;;;;;28.30;100651.00;;;;13074544;22;20211;-75
2022/09/07 13:09:27;;;;;;;5.00;1.55;;;;;29.70;100652.00;;;;13021378;22;20875;-74
2022/09/07 13:14:34;;;;;;;6.70;1.60;;;;;30.60;100633.00;;;;13033273;22;20648;-74
2022/09/07 13:19:44;;;;;;;4.00;1.80;;;;;29.10;100636.00;;;;13062747;22;20674;-75
2022/09/07 13:24:51;;;;;;;6.05;1.45;;;;;30.20;100631.00;;;;13108794;22;20159;-75
2022/09/07 13:29:56;;;;;;;3.50;1.60;;;;;29.40;100645.00;;;;13034829;22;20546;-75
2022/09/07 13:35:05;;;;;;;8.48;1.83;;;;;28.10;100632.00;;;;13057803;22;20182;-75
2022/09/07 13:40:22;;;;;;;4.30;1.45;;;;;28.40;100633.00;;;;13035400;22;20252;-75
2022/09/07 13:45:52;;;;;;;4.20;1.48;;;;;29.10;100624.00;;;;13059457;22;20741;-74
2022/09/07 13:51:16;;;;;;;4.22;1.85;;;;;29.00;100634.00;;;;13109264;22;20652;-75
2022/09/07 13:56:43;;;;;;;5.10;1.58;;;;;28.80;100627.00;;;;13109910;22;20235;-75
2022/09/07 14:01:46;;;;;;;5.47;1.30;;;;;30.40;100614.00;;;;13059805;22;20526;-74
2022/09/07 14:06:48;;;;;;;7.20;1.50;;;;;30.00;100614.00;;;;13109888;22;20216;-75
2022/09/07 14:11:52;;;;;;;6.47;1.90;;;;;29.30;100602.00;;;;13034856;22;20607;-75
2022/09/07 14:17:02;;;;;;;5.97;1.63;;;;;32.00;100588.00;;;;13060969;22;20227;-75
2022/09/07 14:22:20;;;;;;;5.60;1.60;;;;;33.70;100595.00;;;;13061600;22;20172;-75
2022/09/07 14:27:23;;;;;;;6.82;2.00;;;;;31.70;100599.00;;;;13082275;22;20190;-75
2022/09/07 14:32:25;;;;;;;5.57;1.90;;;;;30.30;100604.00;;;;13081703;22;20623;-75
2022/09/07 14:37:28;;;;;;;3.55;1.27;;;;;29.70;100596.00;;;;13073927;22;20564;-75
2022/09/07 14:42:30;;;;;;;6.68;2.03;;;;;28.40;100586.00;;;;13032283;22;20179;-75
2022/09/07 14:47:39;;;;;;;5.60;1.40;;;;;28.70;100582.00;;;;13081533;22;20178;-75
2022/09/07 14:52:40;;;;;;;5.55;1.52;;;;;28.00;100586.00;;;;13107652;22;20163;-75
2022/09/07 14:58:14;;;;;;;6.53;1.73;;;;;27.60;100577.00;;;;13054841;22;20183;-75
2022/09/07 15:03:33;;;;;;;4.60;1.20;;;;;26.90;100564.00;;;;13055610;22;20225;-75
2022/09/07 15:08:38;;;;;;;7.25;1.27;;;;;26.50;100558.00;;;;13057910;22;20179;-74
2022/09/07 15:13:43;;;;;;;7.72;1.90;;;;;27.00;100549.00;;;;13082119;22;20213;-74
2022/09/07 15:18:53;;;;;;;7.45;1.75;;;;;27.50;100557.00;;;;13034408;22;20199;-74
2022/09/07 15:23:57;;;;;;;7.00;1.60;;;;;27.20;100559.00;;;;13081347;22;20199;-74
2022/09/07 15:28:58;;;;;;;4.80;1.63;;;;;27.10;100542.00;;;;13051971;22;20194;-74
2022/09/07 15:34:19;;;;;;;4.40;1.48;;;;;26.30;100554.00;;;;13054374;22;20246;-74
2022/09/07 15:39:26;;;;;;;8.73;1.92;;;;;25.90;100559.00;;;;13107221;22;20749;-74
2022/09/07 15:44:28;;;;;;;6.18;1.58;;;;;25.60;100554.00;;;;13054853;22;20171;-74
2022/09/07 15:49:29;;;;;;;6.47;1.45;;;;;25.30;100555.00;;;;13106842;22;20250;-74
2022/09/07 15:54:31;;;;;;;9.93;2.15;;;;;25.10;100552.00;;;;13059622;22;20687;-74
2022/09/07 15:59:39;;;;;;;8.38;2.00;;;;;25.00;100544.00;;;;13080696;22;20191;-74
2022/09/07 16:05:09;;;;;;;6.28;1.42;;;;;24.60;100535.00;;;;13034760;22;20564;-74
2022/09/07 16:10:10;;;;;;;5.95;2.15;;;;;24.50;100536.00;;;;13104585;22;20242;-74
2022/09/07 16:15:11;;;;;;;6.95;1.67;;;;;24.40;100535.00;;;;13052496;22;20232;-73
2022/09/07 16:20:13;;;;;;;8.77;1.90;;;;;24.40;100540.00;;;;13051322;22;20300;-73
2022/09/07 16:25:14;;;;;;;8.05;1.90;;;;;24.10;100540.00;;;;13060825;22;20718;-73
2022/09/07 16:30:16;;;;;;;3.95;1.67;;;;;23.80;100545.00;;;;13078418;22;20229;-73
2022/09/07 16:35:17;;;;;;;9.48;2.33;;;;;23.70;100534.00;;;;13098491;22;20185;-74
2022/09/07 16:40:19;;;;;;;5.25;1.73;;;;;23.50;100522.00;;;;13017330;22;20202;-73
2022/09/07 16:45:20;;;;;;;5.80;1.60;;;;;23.10;100541.00;;;;13102338;22;20167;-73
2022/09/07 16:50:50;;;;;;;4.32;1.55;;;;;23.00;100546.00;;;;13015424;22;20473;-73
2022/09/07 16:56:01;;;;;;;7.00;2.33;;;;;22.80;100536.00;;;;13088879;22;20187;-73
2022/09/07 17:01:04;;;;;;;5.82;1.40;;;;;22.90;100532.00;;;;13082170;22;20270;-73
2022/09/07 17:06:08;;;;;;;6.47;1.63;;;;;22.90;100539.00;;;;13090590;22;20290;-74
2022/09/07 17:11:15;;;;;;;7.85;1.98;;;;;22.90;100532.00;;;;13043585;22;20255;-73
2022/09/07 17:16:24;;;;;;;7.10;1.80;;;;;22.70;100524.00;;;;13079968;22;20191;-74
2022/09/07 17:21:30;;;;;;;5.00;1.70;;;;;22.60;100520.00;;;;13086275;22;20168;-74
2022/09/07 17:26:34;;;;;;;7.05;1.92;;;;;22.50;100514.00;;;;13063930;22;20571;-74
2022/09/07 17:31:36;;;;;;;7.95;2.17;;;;;22.40;100504.00;;;;13062785;22;20167;-73
2022/09/07 17:36:57;;;;;;;5.72;1.65;;;;;22.30;100500.00;;;;13110677;22;20191;-73
2022/09/07 17:41:59;;;;;;;5.35;1.65;;;;;22.00;100504.00;;;;13036428;22;20178;-73
2022/09/07 17:47:00;;;;;;;3.95;1.70;;;;;21.90;100496.00;;;;13055279;22;20618;-73
2022/09/07 17:52:02;;;;;;;9.13;2.08;;;;;21.70;100497.00;;;;13037448;22;20177;-73
2022/09/07 17:57:03;;;;;;;8.13;2.40;;;;;21.60;100483.00;;;;13081927;22;20191;-73
2022/09/07 18:02:04;;;;;;;8.38;1.92;;;;;21.50;100480.00;;;;13033903;22;20329;-73
2022/09/07 18:07:06;;;;;;;9.55;2.15;;;;;21.30;100486.00;;;;13107315;22;20254;-73
2022/09/07 18:12:07;;;;;;;7.88;2.10;;;;;21.20;100487.00;;;;13083684;22;20170;-73
2022/09/07 18:17:08;;;;;;;5.57;2.03;;;;;21.10;100494.00;;;;13060734;22;20234;-73
2022/09/07 18:22:09;;;;;;;6.82;1.80;;;;;21.10;100497.00;;;;13058407;22;20480;-73
2022/09/07 18:27:11;;;;;;;7.53;1.80;;;;;21.00;100500.00;;;;13105900;22;20206;-74
2022/09/07 18:32:12;;;;;;;9.25;1.90;;;;;21.00;100495.00;;;;13062258;22;20175;-73
2022/09/07 18:37:14;;;;;;;7.65;2.08;;;;;21.10;100495.00;;;;13033971;22;20503;-73
2022/09/07 18:42:17;;;;;;;7.70;2.03;;;;;21.10;100504.00;;;;12986528;22;20270;-73
2022/09/07 18:47:18;;;;;;;7.55;1.92;;;;;21.00;100508.00;;;;13060740;22;20288;-73
2022/09/07 18:52:28;;;;;;;6.03;1.70;;;;;21.00;100506.00;;;;13035881;22;20167;-73
2022/09/07 18:57:49;;;;;;;7.43;1.70;;;;;21.00;100513.00;;;;13108400;22;20190;-73
2022/09/07 19:02:51;;;;;;;8.63;1.83;;;;;21.00;100509.00;;;;13033386;22;20198;-73
2022/09/07 19:07:52;;;;;;;7.63;2.17;;;;;21.00;100510.00;;;;13107354;22;20159;-73
2022/09/07 19:12:55;;;;;;;7.88;1.98;;;;;20.90;100507.00;;;;13106487;22;20168;-73
2022/09/07 19:17:57;;;;;;;6.68;1.90;;;;;20.90;100506.00;;;;13108642;22;20192;-73
2022/09/07 19:22:58;;;;;;;6.40;1.67;;;;;20.90;100506.00;;;;13055331;22;20167;-73
2022/09/07 19:28:00;;;;;;;9.88;2.20;;;;;20.80;100498.00;;;;13054667;22;20175;-73
2022/09/07 19:33:02;;;;;;;4.55;1.70;;;;;20.80;100501.00;;;;13005338;22;20187;-73
2022/09/07 19:38:06;;;;;;;6.95;1.88;;;;;20.70;100494.00;;;;13107032;22;20187;-73
2022/09/07 19:43:08;;;;;;;6.15;1.88;;;;;20.70;100495.00;;;;13107947;22;20170;-73
2022/09/07 19:48:11;;;;;;;8.25;2.05;;;;;20.70;100499.00;;;;13106356;22;20682;-73
2022/09/07 19:53:13;;;;;;;6.32;2.08;;;;;20.70;100501.00;;;;13058520;22;20406;-73
2022/09/07 19:58:14;;;;;;;6.07;1.80;;;;;20.60;100484.00;;;;13105094;22;20188;-73
2022/09/07 20:03:16;;;;;;;4.88;1.60;;;;;20.60;100479.00;;;;13080541;22;20163;-73
2022/09/07 20:08:18;;;;;;;8.18;2.30;;;;;20.50;100486.00;;;;13107082;22;20167;-73
2022/09/07 20:13:19;;;;;;;10.55;2.35;;;;;20.50;100487.00;;;;13050920;22;20167;-73
2022/09/07 20:18:21;;;;;;;2.92;1.38;;;;;20.40;100481.00;;;;13050731;22;20183;-73
2022/09/07 20:23:23;;;;;;;6.82;1.48;;;;;20.20;100481.00;;;;13054460;22;20156;-73
2022/09/07 20:28:25;;;;;;;6.55;1.83;;;;;20.00;100477.00;;;;13034298;22;20290;-73
2022/09/07 20:33:30;;;;;;;9.32;1.88;;;;;19.90;100476.00;;;;13032825;22;20187;-73
2022/09/07 20:38:41;;;;;;;5.13;1.98;;;;;19.90;100469.00;;;;13082403;22;20183;-73
2022/09/07 20:43:43;;;;;;;9.27;2.08;;;;;19.80;100463.00;;;;13081107;22;20160;-73
2022/09/07 20:48:45;;;;;;;3.42;1.85;;;;;19.90;100463.00;;;;13106150;22;20163;-73
2022/09/07 20:53:48;;;;;;;4.57;1.63;;;;;19.90;100459.00;;;;13006280;22;20484;-73
2022/09/07 20:58:59;;;;;;;6.63;2.10;;;;;19.90;100452.00;;;;13081290;22;20182;-73
2022/09/07 21:04:01;;;;;;;6.88;1.85;;;;;19.90;100453.00;;;;13079573;22;20168;-74
2022/09/07 21:09:02;;;;;;;5.68;1.90;;;;;19.80;100458.00;;;;13059784;22;20205;-74
2022/09/07 21:14:10;;;;;;;4.82;1.70;;;;;19.80;100457.00;;;;13061816;22;20482;-74
2022/09/07 21:19:12;;;;;;;7.22;1.83;;;;;19.80;100458.00;;;;13112293;22;20214;-73
2022/09/07 21:24:19;;;;;;;7.95;1.90;;;;;19.80;100454.00;;;;13035503;22;20179;-73
2022/09/07 21:29:22;;;;;;;5.68;1.80;;;;;19.90;100451.00;;;;13051264;22;20500;-73
2022/09/07 21:34:24;;;;;;;4.07;2.00;;;;;19.90;100454.00;;;;13078940;22;20171;-73
2022/09/07 21:39:25;;;;;;;10.48;1.90;;;;;19.90;100452.00;;;;13083995;22;20631;-74
2022/09/07 21:44:27;;;;;;;8.73;2.42;;;;;20.00;100452.00;;;;13109162;22;20167;-73
2022/09/07 21:49:28;;;;;;;5.13;2.20;;;;;19.90;100459.00;;;;13062238;22;20180;-73
2022/09/07 21:54:29;;;;;;;7.82;2.47;;;;;19.80;100464.00;;;;13023428;22;20806;-73
2022/09/07 21:59:31;;;;;;;5.95;2.08;;;;;19.70;100460.00;;;;13054991;22;20194;-73
2022/09/07 22:04:32;;;;;;;8.02;2.28;;;;;19.60;100449.00;;;;13052458;22;20170;-73
2022/09/07 22:09:33;;;;;;;6.60;1.98;;;;;19.60;100448.00;;;;13083024;22;20168;-73
2022/09/07 22:14:36;;;;;;;6.68;1.77;;;;;19.60;100443.00;;;;13009146;22;20515;-73
2022/09/07 22:19:38;;;;;;;6.10;1.80;;;;;19.50;100454.00;;;;13110865;22;20183;-73
2022/09/07 22:24:39;;;;;;;8.15;2.35;;;;;19.50;100451.00;;;;13083516;22;20229;-73
2022/09/07 22:29:41;;;;;;;5.22;1.55;;;;;19.50;100447.00;;;;13063027;22;20191;-73
2022/09/07 22:34:42;;;;;;;5.00;1.67;;;;;19.60;100435.00;;;;13085214;22;20171;-73
2022/09/07 22:39:43;;;;;;;8.65;2.65;;;;;19.60;100437.00;;;;13062714;22;20198;-73
2022/09/07 22:44:46;;;;;;;4.35;1.90;;;;;19.70;100442.00;;;;13110751;22;20156;-73
2022/09/07 22:49:47;;;;;;;4.88;2.10;;;;;19.70;100448.00;;;;13111200;22;20174;-73
2022/09/07 22:54:48;;;;;;;8.38;2.72;;;;;19.50;100469.00;;;;13057558;22;20159;-73
2022/09/07 22:59:50;;;;;;;8.85;2.22;;;;;19.00;100470.00;;;;13010449;22;20638;-74
2022/09/07 23:04:51;;;;;;;7.07;2.20;;;;;18.50;100467.00;;;;13063449;22;20231;-74
2022/09/07 23:09:53;;;;;;;5.88;2.17;;;;;18.20;100464.00;;;;13062485;22;20199;-74
2022/09/07 23:14:54;;;;;;;3.42;1.35;;;;;17.90;100471.00;;;;13083771;22;20790;-74
2022/09/07 23:19:55;;;;;;;5.88;1.90;;;;;17.70;100478.00;;;;13036737;22;20655;-74
2022/09/07 23:24:57;;;;;;;5.88;1.65;;;;;17.50;100482.00;;;;13063538;22;20219;-74
2022/09/07 23:29:58;;;;;;;1.80;1.25;;;;;17.40;100490.00;;;;13035902;22;20183;-73
2022/09/07 23:35:01;;;;;;;7.65;1.63;;;;;17.20;100495.00;;;;13036233;22;20230;-74
2022/09/07 23:40:03;;;;;;;4.10;1.25;;;;;17.10;100487.00;;;;13081472;22;20223;-75
2022/09/07 23:45:06;;;;;;;4.68;1.75;;;;;16.90;100480.00;;;;13037043;22;20202;-74
2022/09/07 23:50:08;;;;;;;3.93;1.67;;;;;16.80;100487.00;;;;13035725;22;20171;-74
2022/09/07 23:55:10;;;;;;;5.97;1.60;;;;;16.80;100476.00;;;;13084606;22;20163;-74
